Flagstaff, AZ

1:31 AM MST on May 24, 2015 (GMT -0700)
Flagstaff Pulliam | | Change Station
CLOSE
Current Station
Airport
Location: Flagstaff,
Elevation: 7011 ft
Nearby Weather Stations

Elev 7011 ft 35.14 °N, 111.67 °W | Updated 34 minutes ago

Clear
Clear
39 °F
Feels Like 36 °F
N
5
Wind Variable Wind from WNW

Today
High -- | Low -- °F
--% Chance of Precip.
Yesterday
High -- | Low -- °F
Precip. -- in
5:16 AM 7:30 PM
Waxing Crescent, 37% visible
Pressure 30.08 in
Visibility 10.0 miles
Clouds Clear
Windchill 36 °F
Dew Point 32 °F
Humidity 75%
Rainfall 0.00 in
Snow Depth Not available.
UV 0 out of 12
Pollen 3.30 out of 12
Air Quality Not available.
Flu Activity Local Activity
METAR KFLG 240757Z AUTO 29004KT 10SM CLR 04/00 A3008

More Conditions Fewer Conditions

Pressure 30.08 in
Visibility 10.0 miles
Clouds Clear
Windchill 36 °F
Dew Point 32 °F
Humidity 75%
Rainfall 0.00 in
Snow Depth Not available.
UV 0 out of 12
Pollen 3.30 out of 12
Air Quality Not available.
Flu Activity Local Activity
METAR KFLG 240757Z AUTO 29004KT 10SM CLR 04/00 A3008

More Conditions Fewer Conditions

10-Day Weather Forecast

Almanac

Astronomy

May. 24, 2015 Rise Set
Actual Time
Civil Twilight
Nautical Twilight
Astronomical Twilight
Moon
Length of Visible Light
Length of Day
Tomorrow will be .
, % of the Moon is Illuminated

Today's Extremes

State Highs State Lows

Community

WunderPhotos

Upload Photos

1,823,698 photos uploaded!

WunderBlogs® & News

Nearby

Air Quality

  Air Quality AQ Index Pollutant
Not available.

Snow Depth

Station Depth Elevation

Earthquake Activity

City Distance Mag. Time & Date
Minimum magnitude displayed is 2.5.

Coastal Water Temperatures

Place Temperature

Stations

Nearby Weather Stations

Station Location Temp. Windchill Dew Point Humidity Wind Precip. Elev Updated Type